sensor_id;sensor_type;location;lat;lon;timestamp;temperature;humidity
66337;SHT30;53139;45.576;5.304;2023-03-31T00:02:17;14.53;77.59
66337;SHT30;53139;45.576;5.304;2023-03-31T00:05:24;14.53;77.60
66337;SHT30;53139;45.576;5.304;2023-03-31T00:08:28;14.53;77.74
66337;SHT30;53139;45.576;5.304;2023-03-31T00:11:36;14.44;78.11
66337;SHT30;53139;45.576;5.304;2023-03-31T00:14:39;14.44;78.32
66337;SHT30;53139;45.576;5.304;2023-03-31T00:17:42;14.44;78.36
66337;SHT30;53139;45.576;5.304;2023-03-31T00:20:45;14.40;78.34
66337;SHT30;53139;45.576;5.304;2023-03-31T00:23:47;14.41;78.50
66337;SHT30;53139;45.576;5.304;2023-03-31T00:26:50;14.32;78.94
66337;SHT30;53139;45.576;5.304;2023-03-31T00:29:50;14.34;78.87
66337;SHT30;53139;45.576;5.304;2023-03-31T00:32:52;14.36;78.90
66337;SHT30;53139;45.576;5.304;2023-03-31T00:35:53;14.38;78.69
66337;SHT30;53139;45.576;5.304;2023-03-31T00:38:59;14.41;78.56
66337;SHT30;53139;45.576;5.304;2023-03-31T00:42:03;14.47;78.04
66337;SHT30;53139;45.576;5.304;2023-03-31T00:48:17;14.54;78.06
66337;SHT30;53139;45.576;5.304;2023-03-31T00:51:21;14.50;78.40
66337;SHT30;53139;45.576;5.304;2023-03-31T00:54:24;14.34;79.26
66337;SHT30;53139;45.576;5.304;2023-03-31T00:57:28;14.29;79.60
66337;SHT30;53139;45.576;5.304;2023-03-31T01:00:34;14.32;79.42
66337;SHT30;53139;45.576;5.304;2023-03-31T01:03:37;14.33;79.74
66337;SHT30;53139;45.576;5.304;2023-03-31T01:06:44;14.10;81.57
66337;SHT30;53139;45.576;5.304;2023-03-31T01:09:47;13.99;82.30
66337;SHT30;53139;45.576;5.304;2023-03-31T01:12:52;13.94;82.36
66337;SHT30;53139;45.576;5.304;2023-03-31T01:15:53;13.95;82.40
66337;SHT30;53139;45.576;5.304;2023-03-31T01:18:55;13.94;82.20
66337;SHT30;53139;45.576;5.304;2023-03-31T01:29:27;14.08;81.26
66337;SHT30;53139;45.576;5.304;2023-03-31T01:44:00;14.06;80.78
66337;SHT30;53139;45.576;5.304;2023-03-31T01:47:18;14.06;80.79
66337;SHT30;53139;45.576;5.304;2023-03-31T01:50:30;14.12;80.61
66337;SHT30;53139;45.576;5.304;2023-03-31T01:54:01;14.02;81.16
66337;SHT30;53139;45.576;5.304;2023-03-31T01:57:22;14.01;81.20
66337;SHT30;53139;45.576;5.304;2023-03-31T02:00:31;14.02;81.14
66337;SHT30;53139;45.576;5.304;2023-03-31T02:03:44;14.01;81.26
66337;SHT30;53139;45.576;5.304;2023-03-31T02:06:57;13.99;81.14
66337;SHT30;53139;45.576;5.304;2023-03-31T02:10:02;13.98;81.20
66337;SHT30;53139;45.576;5.304;2023-03-31T02:13:05;14.04;80.75
66337;SHT30;53139;45.576;5.304;2023-03-31T02:16:12;14.02;80.84
66337;SHT30;53139;45.576;5.304;2023-03-31T02:19:20;14.04;80.79
66337;SHT30;53139;45.576;5.304;2023-03-31T02:22:24;13.95;81.04
66337;SHT30;53139;45.576;5.304;2023-03-31T02:25:32;13.94;81.17
66337;SHT30;53139;45.576;5.304;2023-03-31T02:28:36;13.95;81.00
66337;SHT30;53139;45.576;5.304;2023-03-31T02:32:08;13.88;81.55
66337;SHT30;53139;45.576;5.304;2023-03-31T02:35:14;13.88;81.35
66337;SHT30;53139;45.576;5.304;2023-03-31T02:38:15;13.77;81.80
66337;SHT30;53139;45.576;5.304;2023-03-31T02:41:17;13.79;81.47
66337;SHT30;53139;45.576;5.304;2023-03-31T02:44:18;13.75;81.51
66337;SHT30;53139;45.576;5.304;2023-03-31T02:47:21;13.67;81.64
66337;SHT30;53139;45.576;5.304;2023-03-31T02:50:27;13.65;81.58
66337;SHT30;53139;45.576;5.304;2023-03-31T03:03:41;13.71;80.57
66337;SHT30;53139;45.576;5.304;2023-03-31T03:07:07;13.55;80.94
66337;SHT30;53139;45.576;5.304;2023-03-31T03:17:33;13.53;80.14
66337;SHT30;53139;45.576;5.304;2023-03-31T03:20:36;13.57;79.57
66337;SHT30;53139;45.576;5.304;2023-03-31T03:23:40;13.51;79.11
66337;SHT30;53139;45.576;5.304;2023-03-31T03:26:45;13.44;79.08
66337;SHT30;53139;45.576;5.304;2023-03-31T03:29:49;13.44;78.39
66337;SHT30;53139;45.576;5.304;2023-03-31T03:32:52;13.51;77.07
66337;SHT30;53139;45.576;5.304;2023-03-31T03:35:55;13.44;77.14
66337;SHT30;53139;45.576;5.304;2023-03-31T03:38:58;13.48;76.62
66337;SHT30;53139;45.576;5.304;2023-03-31T03:42:00;13.51;75.96
66337;SHT30;53139;45.576;5.304;2023-03-31T03:45:03;13.47;75.75
66337;SHT30;53139;45.576;5.304;2023-03-31T03:48:06;13.48;75.35
66337;SHT30;53139;45.576;5.304;2023-03-31T03:51:09;13.48;75.21
66337;SHT30;53139;45.576;5.304;2023-03-31T03:54:12;13.58;74.24
66337;SHT30;53139;45.576;5.304;2023-03-31T03:57:14;13.57;74.01
66337;SHT30;53139;45.576;5.304;2023-03-31T04:00:18;13.57;73.87
66337;SHT30;53139;45.576;5.304;2023-03-31T04:03:20;13.60;73.81
66337;SHT30;53139;45.576;5.304;2023-03-31T04:06:23;13.71;73.16
66337;SHT30;53139;45.576;5.304;2023-03-31T04:09:25;13.72;72.87
66337;SHT30;53139;45.576;5.304;2023-03-31T04:12:28;13.78;72.48
66337;SHT30;53139;45.576;5.304;2023-03-31T04:15:30;13.83;72.21
66337;SHT30;53139;45.576;5.304;2023-03-31T04:18:33;13.77;72.57
66337;SHT30;53139;45.576;5.304;2023-03-31T04:21:38;13.82;72.14
66337;SHT30;53139;45.576;5.304;2023-03-31T04:24:46;13.70;72.51
66337;SHT30;53139;45.576;5.304;2023-03-31T04:27:53;13.78;71.83
66337;SHT30;53139;45.576;5.304;2023-03-31T04:30:56;13.77;71.51
66337;SHT30;53139;45.576;5.304;2023-03-31T04:34:00;13.68;71.79
66337;SHT30;53139;45.576;5.304;2023-03-31T04:37:03;13.64;71.56
66337;SHT30;53139;45.576;5.304;2023-03-31T04:40:06;13.53;72.15
66337;SHT30;53139;45.576;5.304;2023-03-31T04:43:09;13.53;71.78
66337;SHT30;53139;45.576;5.304;2023-03-31T04:46:12;13.53;71.75
66337;SHT30;53139;45.576;5.304;2023-03-31T04:49:15;13.50;71.73
66337;SHT30;53139;45.576;5.304;2023-03-31T04:52:18;13.39;71.94
66337;SHT30;53139;45.576;5.304;2023-03-31T04:55:20;13.28;72.24
66337;SHT30;53139;45.576;5.304;2023-03-31T04:58:23;13.26;72.30
66337;SHT30;53139;45.576;5.304;2023-03-31T05:01:25;13.44;70.95
66337;SHT30;53139;45.576;5.304;2023-03-31T05:04:28;13.67;69.76
66337;SHT30;53139;45.576;5.304;2023-03-31T05:07:31;13.60;69.73
66337;SHT30;53139;45.576;5.304;2023-03-31T05:10:33;13.64;69.56
66337;SHT30;53139;45.576;5.304;2023-03-31T05:13:36;13.61;69.79
66337;SHT30;53139;45.576;5.304;2023-03-31T05:16:42;13.42;70.82
66337;SHT30;53139;45.576;5.304;2023-03-31T05:19:45;13.43;70.72
66337;SHT30;53139;45.576;5.304;2023-03-31T05:22:52;13.30;71.32
66337;SHT30;53139;45.576;5.304;2023-03-31T05:25:54;13.24;71.50
66337;SHT30;53139;45.576;5.304;2023-03-31T05:28:57;13.26;71.46
66337;SHT30;53139;45.576;5.304;2023-03-31T05:31:59;13.39;70.52
66337;SHT30;53139;45.576;5.304;2023-03-31T05:35:03;13.43;70.41
66337;SHT30;53139;45.576;5.304;2023-03-31T05:38:05;13.47;70.03
66337;SHT30;53139;45.576;5.304;2023-03-31T05:41:10;13.54;69.49
66337;SHT30;53139;45.576;5.304;2023-03-31T05:44:13;13.57;69.30
66337;SHT30;53139;45.576;5.304;2023-03-31T05:47:15;13.60;69.21
66337;SHT30;53139;45.576;5.304;2023-03-31T05:50:18;13.65;69.34
66337;SHT30;53139;45.576;5.304;2023-03-31T05:53:20;13.67;69.31
66337;SHT30;53139;45.576;5.304;2023-03-31T05:56:23;13.65;69.35
66337;SHT30;53139;45.576;5.304;2023-03-31T05:59:26;13.60;69.64
66337;SHT30;53139;45.576;5.304;2023-03-31T06:02:28;13.68;69.33
66337;SHT30;53139;45.576;5.304;2023-03-31T06:05:31;13.68;69.58
66337;SHT30;53139;45.576;5.304;2023-03-31T06:08:34;13.68;69.53
66337;SHT30;53139;45.576;5.304;2023-03-31T06:11:37;13.67;69.53
66337;SHT30;53139;45.576;5.304;2023-03-31T06:14:40;13.67;69.63
66337;SHT30;53139;45.576;5.304;2023-03-31T06:17:42;13.57;70.41
66337;SHT30;53139;45.576;5.304;2023-03-31T06:20:45;13.32;73.72
66337;SHT30;53139;45.576;5.304;2023-03-31T06:23:48;13.32;72.97
66337;SHT30;53139;45.576;5.304;2023-03-31T06:26:50;13.26;73.47
66337;SHT30;53139;45.576;5.304;2023-03-31T06:29:53;13.34;73.45
66337;SHT30;53139;45.576;5.304;2023-03-31T06:32:55;13.22;74.55
66337;SHT30;53139;45.576;5.304;2023-03-31T06:35:58;13.55;71.91
66337;SHT30;53139;45.576;5.304;2023-03-31T06:39:03;13.65;71.06
66337;SHT30;53139;45.576;5.304;2023-03-31T06:42:05;13.67;71.23
66337;SHT30;53139;45.576;5.304;2023-03-31T06:45:08;13.72;70.85
66337;SHT30;53139;45.576;5.304;2023-03-31T06:48:11;13.72;70.82
66337;SHT30;53139;45.576;5.304;2023-03-31T06:51:14;13.78;70.57
66337;SHT30;53139;45.576;5.304;2023-03-31T06:54:16;13.71;70.78
66337;SHT30;53139;45.576;5.304;2023-03-31T06:57:19;13.71;71.03
66337;SHT30;53139;45.576;5.304;2023-03-31T07:00:22;13.68;71.16
66337;SHT30;53139;45.576;5.304;2023-03-31T07:03:27;13.82;70.31
66337;SHT30;53139;45.576;5.304;2023-03-31T07:06:30;13.71;70.92
66337;SHT30;53139;45.576;5.304;2023-03-31T07:09:33;13.70;71.04
66337;SHT30;53139;45.576;5.304;2023-03-31T07:12:35;13.65;71.19
66337;SHT30;53139;45.576;5.304;2023-03-31T07:15:38;13.55;71.69
66337;SHT30;53139;45.576;5.304;2023-03-31T07:18:40;13.55;71.83
66337;SHT30;53139;45.576;5.304;2023-03-31T07:21:43;13.53;72.55
66337;SHT30;53139;45.576;5.304;2023-03-31T07:24:45;13.64;72.14
66337;SHT30;53139;45.576;5.304;2023-03-31T07:27:48;13.68;71.31
66337;SHT30;53139;45.576;5.304;2023-03-31T07:30:50;13.75;71.40
66337;SHT30;53139;45.576;5.304;2023-03-31T07:33:53;13.88;71.14
66337;SHT30;53139;45.576;5.304;2023-03-31T07:36:55;13.89;70.85
66337;SHT30;53139;45.576;5.304;2023-03-31T07:39:58;13.99;70.98
66337;SHT30;53139;45.576;5.304;2023-03-31T07:43:01;14.09;71.11
66337;SHT30;53139;45.576;5.304;2023-03-31T07:46:03;14.10;70.80
66337;SHT30;53139;45.576;5.304;2023-03-31T07:49:06;14.12;71.04
66337;SHT30;53139;45.576;5.304;2023-03-31T07:52:10;14.13;71.00
66337;SHT30;53139;45.576;5.304;2023-03-31T07:55:13;14.04;71.44
66337;SHT30;53139;45.576;5.304;2023-03-31T07:58:16;14.04;71.81
66337;SHT30;53139;45.576;5.304;2023-03-31T08:01:19;13.95;72.21
66337;SHT30;53139;45.576;5.304;2023-03-31T08:04:22;13.98;72.66
66337;SHT30;53139;45.576;5.304;2023-03-31T08:07:25;14.26;72.22
66337;SHT30;53139;45.576;5.304;2023-03-31T08:10:28;13.98;73.10
66337;SHT30;53139;45.576;5.304;2023-03-31T08:13:31;13.98;73.60
66337;SHT30;53139;45.576;5.304;2023-03-31T08:16:32;13.79;73.95
66337;SHT30;53139;45.576;5.304;2023-03-31T08:19:33;13.91;73.80
66337;SHT30;53139;45.576;5.304;2023-03-31T08:22:37;13.99;73.90
66337;SHT30;53139;45.576;5.304;2023-03-31T08:25:37;14.15;73.37
66337;SHT30;53139;45.576;5.304;2023-03-31T08:28:38;14.20;72.99
66337;SHT30;53139;45.576;5.304;2023-03-31T08:31:39;14.13;73.40
66337;SHT30;53139;45.576;5.304;2023-03-31T08:34:41;14.57;72.71
66337;SHT30;53139;45.576;5.304;2023-03-31T08:37:42;15.25;71.06
66337;SHT30;53139;45.576;5.304;2023-03-31T08:40:43;15.35;70.70
66337;SHT30;53139;45.576;5.304;2023-03-31T08:43:45;15.54;69.76
66337;SHT30;53139;45.576;5.304;2023-03-31T08:46:48;15.40;69.73
66337;SHT30;53139;45.576;5.304;2023-03-31T08:49:56;15.63;69.73
66337;SHT30;53139;45.576;5.304;2023-03-31T08:53:01;15.85;69.06
66337;SHT30;53139;45.576;5.304;2023-03-31T08:56:08;15.82;69.13
66337;SHT30;53139;45.576;5.304;2023-03-31T08:59:33;15.87;68.13
66337;SHT30;53139;45.576;5.304;2023-03-31T09:02:49;16.13;67.26
66337;SHT30;53139;45.576;5.304;2023-03-31T09:06:00;16.95;66.49
66337;SHT30;53139;45.576;5.304;2023-03-31T09:09:09;16.78;66.29
66337;SHT30;53139;45.576;5.304;2023-03-31T09:12:24;16.84;66.70
66337;SHT30;53139;45.576;5.304;2023-03-31T09:15:33;16.99;64.71
66337;SHT30;53139;45.576;5.304;2023-03-31T09:18:37;16.65;65.39
66337;SHT30;53139;45.576;5.304;2023-03-31T09:21:43;15.81;67.35
66337;SHT30;53139;45.576;5.304;2023-03-31T09:24:53;15.84;67.57
66337;SHT30;53139;45.576;5.304;2023-03-31T09:27:57;15.64;67.97
66337;SHT30;53139;45.576;5.304;2023-03-31T09:30:59;16.67;66.78
66337;SHT30;53139;45.576;5.304;2023-03-31T09:34:20;16.50;67.05
66337;SHT30;53139;45.576;5.304;2023-03-31T09:37:26;17.73;63.64
66337;SHT30;53139;45.576;5.304;2023-03-31T09:40:27;16.99;64.28
66337;SHT30;53139;45.576;5.304;2023-03-31T09:43:30;17.43;62.15
66337;SHT30;53139;45.576;5.304;2023-03-31T09:46:36;17.74;59.45
66337;SHT30;53139;45.576;5.304;2023-03-31T09:49:44;17.98;58.21
66337;SHT30;53139;45.576;5.304;2023-03-31T09:52:50;18.81;56.31
66337;SHT30;53139;45.576;5.304;2023-03-31T09:55:54;18.92;55.98
66337;SHT30;53139;45.576;5.304;2023-03-31T09:59:00;19.20;54.44
66337;SHT30;53139;45.576;5.304;2023-03-31T10:05:38;19.19;54.00
66337;SHT30;53139;45.576;5.304;2023-03-31T10:08:46;18.83;53.90
66337;SHT30;53139;45.576;5.304;2023-03-31T10:11:52;19.32;53.22
66337;SHT30;53139;45.576;5.304;2023-03-31T10:15:17;18.78;52.62
66337;SHT30;53139;45.576;5.304;2023-03-31T10:18:31;18.45;55.24
66337;SHT30;53139;45.576;5.304;2023-03-31T10:21:36;18.32;55.86
66337;SHT30;53139;45.576;5.304;2023-03-31T10:24:42;17.95;54.96
66337;SHT30;53139;45.576;5.304;2023-03-31T10:27:47;17.69;56.63
66337;SHT30;53139;45.576;5.304;2023-03-31T10:30:53;17.56;57.23
66337;SHT30;53139;45.576;5.304;2023-03-31T10:33:55;18.26;55.40
66337;SHT30;53139;45.576;5.304;2023-03-31T10:37:02;17.69;55.56
66337;SHT30;53139;45.576;5.304;2023-03-31T10:40:13;17.67;55.88
66337;SHT30;53139;45.576;5.304;2023-03-31T10:43:17;17.80;56.92
66337;SHT30;53139;45.576;5.304;2023-03-31T10:46:20;17.80;57.47
66337;SHT30;53139;45.576;5.304;2023-03-31T10:52:24;17.53;58.97
66337;SHT30;53139;45.576;5.304;2023-03-31T10:55:33;17.43;59.57
66337;SHT30;53139;45.576;5.304;2023-03-31T11:05:42;17.70;59.42
66337;SHT30;53139;45.576;5.304;2023-03-31T11:09:05;17.80;57.63
66337;SHT30;53139;45.576;5.304;2023-03-31T11:19:05;18.02;55.86
66337;SHT30;53139;45.576;5.304;2023-03-31T11:22:11;18.35;51.66
66337;SHT30;53139;45.576;5.304;2023-03-31T11:25:22;17.81;54.12
66337;SHT30;53139;45.576;5.304;2023-03-31T11:35:20;17.81;53.11
66337;SHT30;53139;45.576;5.304;2023-03-31T11:41:57;17.88;51.14
66337;SHT30;53139;45.576;5.304;2023-03-31T11:45:15;18.19;50.51
66337;SHT30;53139;45.576;5.304;2023-03-31T11:48:46;18.75;49.56
66337;SHT30;53139;45.576;5.304;2023-03-31T11:51:56;19.45;48.50
66337;SHT30;53139;45.576;5.304;2023-03-31T11:55:11;19.59;50.74
66337;SHT30;53139;45.576;5.304;2023-03-31T11:58:25;19.50;48.13
66337;SHT30;53139;45.576;5.304;2023-03-31T12:01:31;19.55;49.00
66337;SHT30;53139;45.576;5.304;2023-03-31T12:04:43;20.21;48.40
66337;SHT30;53139;45.576;5.304;2023-03-31T12:11:06;21.07;46.96
66337;SHT30;53139;45.576;5.304;2023-03-31T12:17:27;20.46;47.48
66337;SHT30;53139;45.576;5.304;2023-03-31T12:20:35;21.21;47.06
66337;SHT30;53139;45.576;5.304;2023-03-31T12:23:42;20.28;46.91
66337;SHT30;53139;45.576;5.304;2023-03-31T12:26:50;21.46;46.97
66337;SHT30;53139;45.576;5.304;2023-03-31T12:29:57;21.15;48.11
66337;SHT30;53139;45.576;5.304;2023-03-31T12:33:38;21.07;47.85
66337;SHT30;53139;45.576;5.304;2023-03-31T12:55:57;19.75;50.05
66337;SHT30;53139;45.576;5.304;2023-03-31T12:59:17;18.98;50.63
66337;SHT30;53139;45.576;5.304;2023-03-31T13:02:23;18.73;49.35
66337;SHT30;53139;45.576;5.304;2023-03-31T13:12:21;19.07;50.42
66337;SHT30;53139;45.576;5.304;2023-03-31T13:15:26;19.52;50.29
66337;SHT30;53139;45.576;5.304;2023-03-31T13:18:34;19.74;51.24
66337;SHT30;53139;45.576;5.304;2023-03-31T13:21:51;19.73;50.41
66337;SHT30;53139;45.576;5.304;2023-03-31T13:28:40;19.69;41.95
66337;SHT30;53139;45.576;5.304;2023-03-31T13:35:05;20.07;40.89
66337;SHT30;53139;45.576;5.304;2023-03-31T13:52:01;18.30;44.74
66337;SHT30;53139;45.576;5.304;2023-03-31T13:58:48;18.54;46.09
66337;SHT30;53139;45.576;5.304;2023-03-31T14:02:20;18.73;42.86
66337;SHT30;53139;45.576;5.304;2023-03-31T14:06:10;18.33;44.81
66337;SHT30;53139;45.576;5.304;2023-03-31T14:09:33;17.91;44.98
66337;SHT30;53139;45.576;5.304;2023-03-31T14:12:37;18.12;45.53
66337;SHT30;53139;45.576;5.304;2023-03-31T14:15:56;17.53;45.23
66337;SHT30;53139;45.576;5.304;2023-03-31T14:19:20;17.40;46.66
66337;SHT30;53139;45.576;5.304;2023-03-31T14:22:46;17.14;46.88
66337;SHT30;53139;45.576;5.304;2023-03-31T14:26:35;17.15;46.57
66337;SHT30;53139;45.576;5.304;2023-03-31T14:36:42;19.88;41.74
66337;SHT30;53139;45.576;5.304;2023-03-31T14:39:54;19.56;41.07
66337;SHT30;53139;45.576;5.304;2023-03-31T14:42:58;18.19;41.46
66337;SHT30;53139;45.576;5.304;2023-03-31T14:46:06;17.46;43.60
66337;SHT30;53139;45.576;5.304;2023-03-31T14:49:25;17.60;44.57
66337;SHT30;53139;45.576;5.304;2023-03-31T14:52:38;17.01;45.02
66337;SHT30;53139;45.576;5.304;2023-03-31T14:55:41;16.92;45.39
66337;SHT30;53139;45.576;5.304;2023-03-31T14:58:49;18.00;44.46
66337;SHT30;53139;45.576;5.304;2023-03-31T15:01:55;18.66;43.43
66337;SHT30;53139;45.576;5.304;2023-03-31T15:05:02;18.94;43.01
66337;SHT30;53139;45.576;5.304;2023-03-31T15:08:17;18.45;44.40
66337;SHT30;53139;45.576;5.304;2023-03-31T15:11:22;18.32;44.36
66337;SHT30;53139;45.576;5.304;2023-03-31T15:14:33;17.69;45.57
66337;SHT30;53139;45.576;5.304;2023-03-31T15:17:40;17.49;46.73
66337;SHT30;53139;45.576;5.304;2023-03-31T15:20:44;17.56;47.04
66337;SHT30;53139;45.576;5.304;2023-03-31T15:23:50;17.57;47.24
66337;SHT30;53139;45.576;5.304;2023-03-31T15:26:59;18.00;46.84
66337;SHT30;53139;45.576;5.304;2023-03-31T15:30:07;18.43;46.18
66337;SHT30;53139;45.576;5.304;2023-03-31T15:33:20;18.28;44.65
66337;SHT30;53139;45.576;5.304;2023-03-31T15:36:26;17.94;45.48
66337;SHT30;53139;45.576;5.304;2023-03-31T15:39:31;17.28;44.87
66337;SHT30;53139;45.576;5.304;2023-03-31T15:42:34;17.22;46.71
66337;SHT30;53139;45.576;5.304;2023-03-31T15:45:50;17.18;44.85
66337;SHT30;53139;45.576;5.304;2023-03-31T15:48:54;17.83;45.22
66337;SHT30;53139;45.576;5.304;2023-03-31T15:51:57;18.06;45.37
66337;SHT30;53139;45.576;5.304;2023-03-31T15:58:45;19.32;45.95
66337;SHT30;53139;45.576;5.304;2023-03-31T16:01:49;17.81;46.17
66337;SHT30;53139;45.576;5.304;2023-03-31T16:04:57;17.40;46.84
66337;SHT30;53139;45.576;5.304;2023-03-31T16:08:01;17.02;48.05
66337;SHT30;53139;45.576;5.304;2023-03-31T16:11:11;16.91;47.51
66337;SHT30;53139;45.576;5.304;2023-03-31T16:17:35;16.23;49.77
66337;SHT30;53139;45.576;5.304;2023-03-31T16:20:49;15.73;50.99
66337;SHT30;53139;45.576;5.304;2023-03-31T16:23:56;15.23;51.64
66337;SHT30;53139;45.576;5.304;2023-03-31T16:27:01;14.71;52.82
66337;SHT30;53139;45.576;5.304;2023-03-31T16:30:14;13.47;59.43
66337;SHT30;53139;45.576;5.304;2023-03-31T16:33:18;12.68;63.37
66337;SHT30;53139;45.576;5.304;2023-03-31T16:36:21;12.67;64.38
66337;SHT30;53139;45.576;5.304;2023-03-31T16:39:24;12.03;66.58
66337;SHT30;53139;45.576;5.304;2023-03-31T16:42:27;11.99;66.64
66337;SHT30;53139;45.576;5.304;2023-03-31T16:45:29;12.17;68.01
66337;SHT30;53139;45.576;5.304;2023-03-31T16:48:32;12.22;68.49
66337;SHT30;53139;45.576;5.304;2023-03-31T16:51:35;11.95;68.89
66337;SHT30;53139;45.576;5.304;2023-03-31T16:54:38;13.17;66.73
66337;SHT30;53139;45.576;5.304;2023-03-31T16:57:40;13.55;63.92
66337;SHT30;53139;45.576;5.304;2023-03-31T17:00:44;14.22;63.70
66337;SHT30;53139;45.576;5.304;2023-03-31T17:03:47;13.72;64.33
66337;SHT30;53139;45.576;5.304;2023-03-31T17:06:49;13.19;65.82
66337;SHT30;53139;45.576;5.304;2023-03-31T17:09:53;13.36;64.28
66337;SHT30;53139;45.576;5.304;2023-03-31T17:12:55;12.81;66.42
66337;SHT30;53139;45.576;5.304;2023-03-31T17:15:58;12.33;68.62
66337;SHT30;53139;45.576;5.304;2023-03-31T17:19:01;12.34;68.06
66337;SHT30;53139;45.576;5.304;2023-03-31T17:22:03;12.17;68.48
66337;SHT30;53139;45.576;5.304;2023-03-31T17:25:06;12.25;67.63
66337;SHT30;53139;45.576;5.304;2023-03-31T17:28:11;12.15;67.64
66337;SHT30;53139;45.576;5.304;2023-03-31T17:31:17;11.99;69.11
66337;SHT30;53139;45.576;5.304;2023-03-31T17:34:20;11.99;70.03
66337;SHT30;53139;45.576;5.304;2023-03-31T17:37:22;12.08;70.75
66337;SHT30;53139;45.576;5.304;2023-03-31T17:40:25;12.16;70.85
66337;SHT30;53139;45.576;5.304;2023-03-31T17:43:27;11.92;71.60
66337;SHT30;53139;45.576;5.304;2023-03-31T17:46:30;11.53;72.53
66337;SHT30;53139;45.576;5.304;2023-03-31T17:49:33;11.41;74.08
66337;SHT30;53139;45.576;5.304;2023-03-31T17:52:36;11.35;74.40
66337;SHT30;53139;45.576;5.304;2023-03-31T17:55:38;11.48;73.21
66337;SHT30;53139;45.576;5.304;2023-03-31T17:58:41;11.54;73.78
66337;SHT30;53139;45.576;5.304;2023-03-31T18:01:44;11.23;75.46
66337;SHT30;53139;45.576;5.304;2023-03-31T18:04:48;11.20;74.24
66337;SHT30;53139;45.576;5.304;2023-03-31T18:07:50;11.22;74.60
66337;SHT30;53139;45.576;5.304;2023-03-31T18:10:53;11.20;75.07
66337;SHT30;53139;45.576;5.304;2023-03-31T18:13:55;11.20;74.48
66337;SHT30;53139;45.576;5.304;2023-03-31T18:16:58;11.23;74.53
66337;SHT30;53139;45.576;5.304;2023-03-31T18:20:00;11.13;75.27
66337;SHT30;53139;45.576;5.304;2023-03-31T18:23:03;11.20;74.70
66337;SHT30;53139;45.576;5.304;2023-03-31T18:26:10;11.02;76.53
66337;SHT30;53139;45.576;5.304;2023-03-31T18:29:13;11.05;75.25
66337;SHT30;53139;45.576;5.304;2023-03-31T18:32:16;11.05;74.12
66337;SHT30;53139;45.576;5.304;2023-03-31T18:35:18;11.03;73.71
66337;SHT30;53139;45.576;5.304;2023-03-31T18:38:21;11.06;73.15
66337;SHT30;53139;45.576;5.304;2023-03-31T18:41:24;11.07;73.54
66337;SHT30;53139;45.576;5.304;2023-03-31T18:44:26;11.16;72.20
66337;SHT30;53139;45.576;5.304;2023-03-31T18:47:29;11.15;72.46
66337;SHT30;53139;45.576;5.304;2023-03-31T18:50:31;11.27;71.49
66337;SHT30;53139;45.576;5.304;2023-03-31T18:53:34;11.12;72.03
66337;SHT30;53139;45.576;5.304;2023-03-31T18:56:37;11.20;71.83
66337;SHT30;53139;45.576;5.304;2023-03-31T18:59:39;11.20;71.31
66337;SHT30;53139;45.576;5.304;2023-03-31T19:02:42;11.15;71.79
66337;SHT30;53139;45.576;5.304;2023-03-31T19:05:45;11.05;72.79
66337;SHT30;53139;45.576;5.304;2023-03-31T19:08:47;11.30;70.86
66337;SHT30;53139;45.576;5.304;2023-03-31T19:11:50;11.15;72.18
66337;SHT30;53139;45.576;5.304;2023-03-31T19:14:53;11.17;71.93
66337;SHT30;53139;45.576;5.304;2023-03-31T19:17:56;11.27;71.24
66337;SHT30;53139;45.576;5.304;2023-03-31T19:21:00;11.22;71.58
66337;SHT30;53139;45.576;5.304;2023-03-31T19:24:03;11.28;70.70
66337;SHT30;53139;45.576;5.304;2023-03-31T19:27:06;11.26;70.92
66337;SHT30;53139;45.576;5.304;2023-03-31T19:30:20;11.43;69.02
66337;SHT30;53139;45.576;5.304;2023-03-31T19:33:24;11.26;70.52
66337;SHT30;53139;45.576;5.304;2023-03-31T19:36:27;11.28;70.13
66337;SHT30;53139;45.576;5.304;2023-03-31T19:39:29;11.33;69.68
66337;SHT30;53139;45.576;5.304;2023-03-31T19:42:32;11.06;71.65
66337;SHT30;53139;45.576;5.304;2023-03-31T19:45:35;11.02;72.16
66337;SHT30;53139;45.576;5.304;2023-03-31T19:48:38;11.07;71.19
66337;SHT30;53139;45.576;5.304;2023-03-31T19:51:40;10.91;72.48
66337;SHT30;53139;45.576;5.304;2023-03-31T19:54:43;10.75;73.91
66337;SHT30;53139;45.576;5.304;2023-03-31T19:57:45;10.73;74.33
66337;SHT30;53139;45.576;5.304;2023-03-31T20:00:53;10.52;75.36
66337;SHT30;53139;45.576;5.304;2023-03-31T20:03:56;10.71;73.93
66337;SHT30;53139;45.576;5.304;2023-03-31T20:06:58;10.68;74.28
66337;SHT30;53139;45.576;5.304;2023-03-31T20:10:01;10.79;72.71
66337;SHT30;53139;45.576;5.304;2023-03-31T20:13:03;10.61;74.21
66337;SHT30;53139;45.576;5.304;2023-03-31T20:16:12;10.58;74.88
66337;SHT30;53139;45.576;5.304;2023-03-31T20:19:15;10.64;74.00
66337;SHT30;53139;45.576;5.304;2023-03-31T20:22:18;10.76;73.33
66337;SHT30;53139;45.576;5.304;2023-03-31T20:25:20;10.82;72.11
66337;SHT30;53139;45.576;5.304;2023-03-31T20:28:23;10.69;73.18
66337;SHT30;53139;45.576;5.304;2023-03-31T20:31:30;10.62;72.99
66337;SHT30;53139;45.576;5.304;2023-03-31T20:34:35;10.69;72.15
66337;SHT30;53139;45.576;5.304;2023-03-31T20:37:37;10.58;72.68
66337;SHT30;53139;45.576;5.304;2023-03-31T20:40:44;10.41;73.86
66337;SHT30;53139;45.576;5.304;2023-03-31T20:43:54;10.50;73.87
66337;SHT30;53139;45.576;5.304;2023-03-31T20:46:57;10.54;73.23
66337;SHT30;53139;45.576;5.304;2023-03-31T20:50:04;10.27;75.70
66337;SHT30;53139;45.576;5.304;2023-03-31T20:53:16;10.57;73.63
66337;SHT30;53139;45.576;5.304;2023-03-31T21:00:45;10.57;73.23
66337;SHT30;53139;45.576;5.304;2023-03-31T21:04:22;10.54;73.77
66337;SHT30;53139;45.576;5.304;2023-03-31T21:07:52;10.38;74.38
66337;SHT30;53139;45.576;5.304;2023-03-31T21:11:05;10.24;74.99
66337;SHT30;53139;45.576;5.304;2023-03-31T21:14:36;10.02;76.18
66337;SHT30;53139;45.576;5.304;2023-03-31T21:17:48;10.21;74.00
66337;SHT30;53139;45.576;5.304;2023-03-31T21:20:58;10.21;73.83
66337;SHT30;53139;45.576;5.304;2023-03-31T21:24:11;10.20;74.39
66337;SHT30;53139;45.576;5.304;2023-03-31T21:27:17;10.03;75.77
66337;SHT30;53139;45.576;5.304;2023-03-31T21:30:21;10.00;75.94
66337;SHT30;53139;45.576;5.304;2023-03-31T21:33:38;9.90;76.00
66337;SHT30;53139;45.576;5.304;2023-03-31T21:36:59;9.86;76.02
66337;SHT30;53139;45.576;5.304;2023-03-31T21:40:16;9.88;75.99
66337;SHT30;53139;45.576;5.304;2023-03-31T21:43:41;10.17;73.52
66337;SHT30;53139;45.576;5.304;2023-03-31T21:46:44;10.09;74.38
66337;SHT30;53139;45.576;5.304;2023-03-31T21:49:49;9.93;75.36
66337;SHT30;53139;45.576;5.304;2023-03-31T21:52:52;9.99;75.38
66337;SHT30;53139;45.576;5.304;2023-03-31T21:55:55;9.85;75.57
66337;SHT30;53139;45.576;5.304;2023-03-31T21:58:59;9.72;77.70
66337;SHT30;53139;45.576;5.304;2023-03-31T22:02:02;9.88;76.42